sensor_id;sensor_type;location;lat;lon;timestamp;P1;durP1;ratioP1;P2;durP2;ratioP2
30000;SDS011;16845;48.670;9.000;2024-03-25T00:01:14;8.05;;;3.55;;
30000;SDS011;16845;48.670;9.000;2024-03-25T00:03:41;10.32;;;3.33;;
30000;SDS011;16845;48.670;9.000;2024-03-25T00:06:06;9.55;;;3.60;;
30000;SDS011;16845;48.670;9.000;2024-03-25T00:08:32;7.47;;;3.80;;
30000;SDS011;16845;48.670;9.000;2024-03-25T00:10:58;9.63;;;3.25;;
30000;SDS011;16845;48.670;9.000;2024-03-25T00:13:23;5.63;;;3.28;;
30000;SDS011;16845;48.670;9.000;2024-03-25T00:15:49;11.90;;;3.25;;
30000;SDS011;16845;48.670;9.000;2024-03-25T00:18:15;14.82;;;4.15;;
30000;SDS011;16845;48.670;9.000;2024-03-25T00:20:42;11.13;;;3.47;;
30000;SDS011;16845;48.670;9.000;2024-03-25T00:23:07;6.53;;;3.25;;
30000;SDS011;16845;48.670;9.000;2024-03-25T00:25:33;11.75;;;3.47;;
30000;SDS011;16845;48.670;9.000;2024-03-25T00:27:58;10.48;;;3.92;;
30000;SDS011;16845;48.670;9.000;2024-03-25T00:30:24;8.63;;;2.80;;
30000;SDS011;16845;48.670;9.000;2024-03-25T00:32:49;10.13;;;3.42;;
30000;SDS011;16845;48.670;9.000;2024-03-25T00:35:15;9.73;;;3.58;;
30000;SDS011;16845;48.670;9.000;2024-03-25T00:37:42;8.40;;;3.58;;
30000;SDS011;16845;48.670;9.000;2024-03-25T00:40:08;6.78;;;3.25;;
30000;SDS011;16845;48.670;9.000;2024-03-25T00:42:33;9.32;;;3.72;;
30000;SDS011;16845;48.670;9.000;2024-03-25T00:44:59;11.30;;;3.60;;
30000;SDS011;16845;48.670;9.000;2024-03-25T00:47:25;9.45;;;3.50;;
30000;SDS011;16845;48.670;9.000;2024-03-25T00:49:50;8.82;;;3.92;;
30000;SDS011;16845;48.670;9.000;2024-03-25T00:52:16;7.78;;;3.20;;
30000;SDS011;16845;48.670;9.000;2024-03-25T00:54:43;9.85;;;4.32;;
30000;SDS011;16845;48.670;9.000;2024-03-25T00:57:08;7.63;;;3.78;;
30000;SDS011;16845;48.670;9.000;2024-03-25T00:59:34;5.80;;;3.75;;
30000;SDS011;16845;48.670;9.000;2024-03-25T01:02:00;10.10;;;3.75;;
30000;SDS011;16845;48.670;9.000;2024-03-25T01:04:26;12.25;;;4.53;;
30000;SDS011;16845;48.670;9.000;2024-03-25T01:06:51;8.38;;;3.40;;
30000;SDS011;16845;48.670;9.000;2024-03-25T01:09:17;6.70;;;3.65;;
30000;SDS011;16845;48.670;9.000;2024-03-25T01:11:44;7.65;;;3.70;;
30000;SDS011;16845;48.670;9.000;2024-03-25T01:14:09;9.77;;;4.07;;
30000;SDS011;16845;48.670;9.000;2024-03-25T01:16:35;9.43;;;3.67;;
30000;SDS011;16845;48.670;9.000;2024-03-25T01:19:00;8.82;;;3.80;;
30000;SDS011;16845;48.670;9.000;2024-03-25T01:21:26;9.00;;;4.07;;
30000;SDS011;16845;48.670;9.000;2024-03-25T01:23:51;8.00;;;3.85;;
30000;SDS011;16845;48.670;9.000;2024-03-25T01:26:17;8.32;;;4.20;;
30000;SDS011;16845;48.670;9.000;2024-03-25T01:28:44;11.45;;;3.97;;
30000;SDS011;16845;48.670;9.000;2024-03-25T01:31:09;6.55;;;3.88;;
30000;SDS011;16845;48.670;9.000;2024-03-25T01:33:35;11.40;;;4.22;;
30000;SDS011;16845;48.670;9.000;2024-03-25T01:36:01;5.45;;;4.15;;
30000;SDS011;16845;48.670;9.000;2024-03-25T01:38:26;8.27;;;3.80;;
30000;SDS011;16845;48.670;9.000;2024-03-25T01:40:52;6.65;;;3.88;;
30000;SDS011;16845;48.670;9.000;2024-03-25T01:43:17;11.52;;;3.60;;
30000;SDS011;16845;48.670;9.000;2024-03-25T01:45:44;9.82;;;3.63;;
30000;SDS011;16845;48.670;9.000;2024-03-25T01:48:10;12.73;;;4.10;;
30000;SDS011;16845;48.670;9.000;2024-03-25T01:50:37;6.93;;;4.18;;
30000;SDS011;16845;48.670;9.000;2024-03-25T01:53:06;9.02;;;4.53;;
30000;SDS011;16845;48.670;9.000;2024-03-25T01:55:32;11.45;;;3.92;;
30000;SDS011;16845;48.670;9.000;2024-03-25T01:58:00;6.78;;;3.60;;
30000;SDS011;16845;48.670;9.000;2024-03-25T02:00:26;11.68;;;4.22;;
30000;SDS011;16845;48.670;9.000;2024-03-25T02:02:53;10.70;;;4.03;;
30000;SDS011;16845;48.670;9.000;2024-03-25T02:05:20;10.93;;;4.68;;
30000;SDS011;16845;48.670;9.000;2024-03-25T02:07:46;12.13;;;4.70;;
30000;SDS011;16845;48.670;9.000;2024-03-25T02:10:13;11.13;;;4.47;;
30000;SDS011;16845;48.670;9.000;2024-03-25T02:12:39;7.55;;;4.20;;
30000;SDS011;16845;48.670;9.000;2024-03-25T02:15:06;8.57;;;4.90;;
30000;SDS011;16845;48.670;9.000;2024-03-25T02:17:32;8.30;;;4.33;;
30000;SDS011;16845;48.670;9.000;2024-03-25T02:19:59;7.55;;;3.90;;
30000;SDS011;16845;48.670;9.000;2024-03-25T02:22:25;14.55;;;5.00;;
30000;SDS011;16845;48.670;9.000;2024-03-25T02:24:51;11.55;;;5.85;;
30000;SDS011;16845;48.670;9.000;2024-03-25T02:27:19;12.60;;;4.50;;
30000;SDS011;16845;48.670;9.000;2024-03-25T02:29:45;9.70;;;5.78;;
30000;SDS011;16845;48.670;9.000;2024-03-25T02:32:10;9.13;;;4.07;;
30000;SDS011;16845;48.670;9.000;2024-03-25T02:34:36;7.63;;;4.35;;
30000;SDS011;16845;48.670;9.000;2024-03-25T02:37:02;7.97;;;4.50;;
30000;SDS011;16845;48.670;9.000;2024-03-25T02:39:28;9.85;;;3.78;;
30000;SDS011;16845;48.670;9.000;2024-03-25T02:41:54;7.63;;;3.90;;
30000;SDS011;16845;48.670;9.000;2024-03-25T02:44:21;10.15;;;4.80;;
30000;SDS011;16845;48.670;9.000;2024-03-25T02:46:48;11.50;;;4.35;;
30000;SDS011;16845;48.670;9.000;2024-03-25T02:49:14;6.50;;;3.72;;
30000;SDS011;16845;48.670;9.000;2024-03-25T02:51:39;8.65;;;3.83;;
30000;SDS011;16845;48.670;9.000;2024-03-25T02:54:05;8.75;;;3.90;;
30000;SDS011;16845;48.670;9.000;2024-03-25T02:56:31;9.00;;;4.03;;
30000;SDS011;16845;48.670;9.000;2024-03-25T02:58:56;7.18;;;4.72;;
30000;SDS011;16845;48.670;9.000;2024-03-25T03:01:23;7.45;;;3.95;;
30000;SDS011;16845;48.670;9.000;2024-03-25T03:03:49;9.57;;;4.43;;
30000;SDS011;16845;48.670;9.000;2024-03-25T03:06:14;9.40;;;4.25;;
30000;SDS011;16845;48.670;9.000;2024-03-25T03:08:40;8.43;;;4.68;;
30000;SDS011;16845;48.670;9.000;2024-03-25T03:11:05;7.28;;;4.60;;
30000;SDS011;16845;48.670;9.000;2024-03-25T03:13:31;7.97;;;4.55;;
30000;SDS011;16845;48.670;9.000;2024-03-25T03:15:57;18.15;;;5.80;;
30000;SDS011;16845;48.670;9.000;2024-03-25T03:18:23;12.18;;;4.20;;
30000;SDS011;16845;48.670;9.000;2024-03-25T03:20:49;10.30;;;4.65;;
30000;SDS011;16845;48.670;9.000;2024-03-25T03:23:15;9.57;;;4.38;;
30000;SDS011;16845;48.670;9.000;2024-03-25T03:25:40;12.45;;;4.28;;
30000;SDS011;16845;48.670;9.000;2024-03-25T03:28:06;5.07;;;4.13;;
30000;SDS011;16845;48.670;9.000;2024-03-25T03:30:31;13.75;;;4.45;;
30000;SDS011;16845;48.670;9.000;2024-03-25T03:32:57;5.85;;;3.88;;
30000;SDS011;16845;48.670;9.000;2024-03-25T03:35:24;8.68;;;3.65;;
30000;SDS011;16845;48.670;9.000;2024-03-25T03:37:49;9.70;;;4.18;;
30000;SDS011;16845;48.670;9.000;2024-03-25T03:40:15;8.00;;;4.18;;
30000;SDS011;16845;48.670;9.000;2024-03-25T03:42:41;10.35;;;4.25;;
30000;SDS011;16845;48.670;9.000;2024-03-25T03:45:06;15.45;;;4.82;;
30000;SDS011;16845;48.670;9.000;2024-03-25T03:47:32;8.10;;;4.05;;
30000;SDS011;16845;48.670;9.000;2024-03-25T03:49:58;8.52;;;4.50;;
30000;SDS011;16845;48.670;9.000;2024-03-25T03:52:25;10.88;;;4.40;;
30000;SDS011;16845;48.670;9.000;2024-03-25T03:54:50;9.40;;;4.25;;
30000;SDS011;16845;48.670;9.000;2024-03-25T03:57:16;8.15;;;3.67;;
30000;SDS011;16845;48.670;9.000;2024-03-25T03:59:42;13.68;;;4.38;;
30000;SDS011;16845;48.670;9.000;2024-03-25T04:02:07;9.82;;;4.35;;
30000;SDS011;16845;48.670;9.000;2024-03-25T04:04:33;10.73;;;4.35;;
30000;SDS011;16845;48.670;9.000;2024-03-25T04:06:58;6.05;;;4.18;;
30000;SDS011;16845;48.670;9.000;2024-03-25T04:09:26;9.98;;;4.22;;
30000;SDS011;16845;48.670;9.000;2024-03-25T04:11:52;10.73;;;4.10;;
30000;SDS011;16845;48.670;9.000;2024-03-25T04:14:17;8.70;;;4.10;;
30000;SDS011;16845;48.670;9.000;2024-03-25T04:16:43;9.10;;;4.53;;
30000;SDS011;16845;48.670;9.000;2024-03-25T04:19:09;7.03;;;4.30;;
30000;SDS011;16845;48.670;9.000;2024-03-25T04:21:34;7.82;;;4.55;;
30000;SDS011;16845;48.670;9.000;2024-03-25T04:24:00;14.35;;;5.55;;
30000;SDS011;16845;48.670;9.000;2024-03-25T04:26:27;8.93;;;4.15;;
30000;SDS011;16845;48.670;9.000;2024-03-25T04:28:52;7.13;;;4.95;;
30000;SDS011;16845;48.670;9.000;2024-03-25T04:31:18;14.93;;;4.57;;
30000;SDS011;16845;48.670;9.000;2024-03-25T04:33:43;12.80;;;4.93;;
30000;SDS011;16845;48.670;9.000;2024-03-25T04:36:09;5.75;;;3.72;;
30000;SDS011;16845;48.670;9.000;2024-03-25T04:38:35;8.88;;;4.07;;
30000;SDS011;16845;48.670;9.000;2024-03-25T04:41:00;9.68;;;4.07;;
30000;SDS011;16845;48.670;9.000;2024-03-25T04:43:27;18.13;;;5.63;;
30000;SDS011;16845;48.670;9.000;2024-03-25T04:45:53;10.70;;;5.57;;
30000;SDS011;16845;48.670;9.000;2024-03-25T04:48:18;12.55;;;4.68;;
30000;SDS011;16845;48.670;9.000;2024-03-25T04:50:44;8.70;;;4.50;;
30000;SDS011;16845;48.670;9.000;2024-03-25T04:53:09;12.63;;;4.80;;
30000;SDS011;16845;48.670;9.000;2024-03-25T04:55:35;10.02;;;4.68;;
30000;SDS011;16845;48.670;9.000;2024-03-25T04:58:00;7.53;;;4.38;;
30000;SDS011;16845;48.670;9.000;2024-03-25T05:00:27;8.82;;;5.03;;
30000;SDS011;16845;48.670;9.000;2024-03-25T05:02:53;9.20;;;4.47;;
30000;SDS011;16845;48.670;9.000;2024-03-25T05:05:18;8.48;;;4.22;;
30000;SDS011;16845;48.670;9.000;2024-03-25T05:07:44;11.02;;;5.20;;
30000;SDS011;16845;48.670;9.000;2024-03-25T05:10:09;10.77;;;4.57;;
30000;SDS011;16845;48.670;9.000;2024-03-25T05:12:35;7.85;;;4.60;;
30000;SDS011;16845;48.670;9.000;2024-03-25T05:15:01;9.80;;;4.57;;
30000;SDS011;16845;48.670;9.000;2024-03-25T05:17:28;11.10;;;5.15;;
30000;SDS011;16845;48.670;9.000;2024-03-25T05:19:53;13.00;;;4.82;;
30000;SDS011;16845;48.670;9.000;2024-03-25T05:22:19;10.32;;;5.32;;
30000;SDS011;16845;48.670;9.000;2024-03-25T05:24:44;11.77;;;4.63;;
30000;SDS011;16845;48.670;9.000;2024-03-25T05:27:10;8.90;;;4.75;;
30000;SDS011;16845;48.670;9.000;2024-03-25T05:29:36;7.63;;;5.00;;
30000;SDS011;16845;48.670;9.000;2024-03-25T05:32:01;8.85;;;4.55;;
30000;SDS011;16845;48.670;9.000;2024-03-25T05:34:29;10.07;;;4.82;;
30000;SDS011;16845;48.670;9.000;2024-03-25T05:36:54;11.07;;;4.63;;
30000;SDS011;16845;48.670;9.000;2024-03-25T05:39:20;9.70;;;4.65;;
30000;SDS011;16845;48.670;9.000;2024-03-25T05:41:46;8.68;;;4.15;;
30000;SDS011;16845;48.670;9.000;2024-03-25T05:44:12;6.93;;;4.57;;
30000;SDS011;16845;48.670;9.000;2024-03-25T05:46:38;7.82;;;4.45;;
30000;SDS011;16845;48.670;9.000;2024-03-25T05:49:03;7.45;;;4.28;;
30000;SDS011;16845;48.670;9.000;2024-03-25T05:51:31;8.73;;;4.22;;
30000;SDS011;16845;48.670;9.000;2024-03-25T05:53:57;9.73;;;4.65;;
30000;SDS011;16845;48.670;9.000;2024-03-25T05:56:22;10.23;;;5.30;;
30000;SDS011;16845;48.670;9.000;2024-03-25T05:58:48;10.48;;;4.93;;
30000;SDS011;16845;48.670;9.000;2024-03-25T06:01:13;9.93;;;5.07;;
30000;SDS011;16845;48.670;9.000;2024-03-25T06:03:39;9.05;;;5.78;;
30000;SDS011;16845;48.670;9.000;2024-03-25T06:06:04;7.85;;;4.40;;
30000;SDS011;16845;48.670;9.000;2024-03-25T06:08:31;13.00;;;4.63;;
30000;SDS011;16845;48.670;9.000;2024-03-25T06:11:00;12.43;;;4.63;;
30000;SDS011;16845;48.670;9.000;2024-03-25T06:13:26;9.30;;;4.32;;
30000;SDS011;16845;48.670;9.000;2024-03-25T06:15:52;10.55;;;4.82;;
30000;SDS011;16845;48.670;9.000;2024-03-25T06:18:18;11.98;;;4.25;;
30000;SDS011;16845;48.670;9.000;2024-03-25T06:20:44;9.32;;;4.35;;
30000;SDS011;16845;48.670;9.000;2024-03-25T06:23:10;8.80;;;4.10;;
30000;SDS011;16845;48.670;9.000;2024-03-25T06:25:37;8.10;;;4.68;;
30000;SDS011;16845;48.670;9.000;2024-03-25T06:28:02;8.68;;;5.07;;
30000;SDS011;16845;48.670;9.000;2024-03-25T06:30:28;7.85;;;4.10;;
30000;SDS011;16845;48.670;9.000;2024-03-25T06:32:54;11.35;;;5.90;;
30000;SDS011;16845;48.670;9.000;2024-03-25T06:35:20;11.73;;;4.57;;
30000;SDS011;16845;48.670;9.000;2024-03-25T06:37:45;11.57;;;4.78;;
30000;SDS011;16845;48.670;9.000;2024-03-25T06:40:11;9.90;;;4.82;;
30000;SDS011;16845;48.670;9.000;2024-03-25T06:42:38;10.55;;;5.57;;
30000;SDS011;16845;48.670;9.000;2024-03-25T06:45:04;11.32;;;5.38;;
30000;SDS011;16845;48.670;9.000;2024-03-25T06:47:30;8.50;;;4.25;;
30000;SDS011;16845;48.670;9.000;2024-03-25T06:49:56;9.18;;;4.85;;
30000;SDS011;16845;48.670;9.000;2024-03-25T06:52:22;7.72;;;4.35;;
30000;SDS011;16845;48.670;9.000;2024-03-25T06:54:47;12.52;;;4.93;;
30000;SDS011;16845;48.670;9.000;2024-03-25T06:57:13;13.35;;;5.35;;
30000;SDS011;16845;48.670;9.000;2024-03-25T06:59:40;11.95;;;5.25;;
30000;SDS011;16845;48.670;9.000;2024-03-25T07:02:05;12.75;;;5.50;;
30000;SDS011;16845;48.670;9.000;2024-03-25T07:04:31;11.60;;;4.40;;
30000;SDS011;16845;48.670;9.000;2024-03-25T07:06:58;6.45;;;4.22;;
30000;SDS011;16845;48.670;9.000;2024-03-25T07:09:23;11.98;;;4.85;;
30000;SDS011;16845;48.670;9.000;2024-03-25T07:11:49;14.35;;;4.82;;
30000;SDS011;16845;48.670;9.000;2024-03-25T07:14:14;9.82;;;4.57;;
30000;SDS011;16845;48.670;9.000;2024-03-25T07:16:41;15.02;;;5.25;;
30000;SDS011;16845;48.670;9.000;2024-03-25T07:19:07;13.35;;;4.85;;
30000;SDS011;16845;48.670;9.000;2024-03-25T07:21:32;9.05;;;4.07;;
30000;SDS011;16845;48.670;9.000;2024-03-25T07:23:58;6.60;;;4.28;;
30000;SDS011;16845;48.670;9.000;2024-03-25T07:26:23;6.47;;;3.63;;
30000;SDS011;16845;48.670;9.000;2024-03-25T07:28:49;8.57;;;4.10;;
30000;SDS011;16845;48.670;9.000;2024-03-25T07:31:15;7.85;;;3.83;;
30000;SDS011;16845;48.670;9.000;2024-03-25T07:33:41;8.43;;;3.50;;
30000;SDS011;16845;48.670;9.000;2024-03-25T07:36:07;7.15;;;3.42;;
30000;SDS011;16845;48.670;9.000;2024-03-25T07:38:33;6.75;;;3.13;;
30000;SDS011;16845;48.670;9.000;2024-03-25T07:41:02;7.47;;;3.03;;
30000;SDS011;16845;48.670;9.000;2024-03-25T07:43:28;7.25;;;3.17;;
30000;SDS011;16845;48.670;9.000;2024-03-25T07:45:54;6.22;;;3.83;;
30000;SDS011;16845;48.670;9.000;2024-03-25T07:48:19;4.50;;;2.80;;
30000;SDS011;16845;48.670;9.000;2024-03-25T07:50:46;6.68;;;2.53;;
30000;SDS011;16845;48.670;9.000;2024-03-25T07:53:12;9.57;;;3.03;;
30000;SDS011;16845;48.670;9.000;2024-03-25T07:55:37;8.25;;;3.08;;
30000;SDS011;16845;48.670;9.000;2024-03-25T07:58:03;3.88;;;2.40;;
30000;SDS011;16845;48.670;9.000;2024-03-25T08:00:28;8.32;;;2.83;;
30000;SDS011;16845;48.670;9.000;2024-03-25T08:02:54;6.72;;;3.25;;
30000;SDS011;16845;48.670;9.000;2024-03-25T08:05:20;7.72;;;2.75;;
30000;SDS011;16845;48.670;9.000;2024-03-25T08:07:46;4.57;;;2.55;;
30000;SDS011;16845;48.670;9.000;2024-03-25T08:10:12;6.50;;;3.13;;
30000;SDS011;16845;48.670;9.000;2024-03-25T08:12:37;7.50;;;2.67;;
30000;SDS011;16845;48.670;9.000;2024-03-25T08:15:03;4.28;;;2.35;;
30000;SDS011;16845;48.670;9.000;2024-03-25T08:17:30;9.13;;;2.97;;
30000;SDS011;16845;48.670;9.000;2024-03-25T08:19:55;5.53;;;2.50;;
30000;SDS011;16845;48.670;9.000;2024-03-25T08:22:21;4.85;;;2.50;;
30000;SDS011;16845;48.670;9.000;2024-03-25T08:24:48;6.50;;;2.80;;
30000;SDS011;16845;48.670;9.000;2024-03-25T08:27:13;7.30;;;2.78;;
30000;SDS011;16845;48.670;9.000;2024-03-25T08:29:39;5.55;;;2.55;;
30000;SDS011;16845;48.670;9.000;2024-03-25T08:32:05;5.78;;;2.50;;
30000;SDS011;16845;48.670;9.000;2024-03-25T08:34:31;4.53;;;2.60;;
30000;SDS011;16845;48.670;9.000;2024-03-25T08:36:56;4.70;;;2.40;;
30000;SDS011;16845;48.670;9.000;2024-03-25T08:39:22;7.07;;;2.53;;
30000;SDS011;16845;48.670;9.000;2024-03-25T08:41:49;5.00;;;2.78;;
30000;SDS011;16845;48.670;9.000;2024-03-25T08:44:14;4.72;;;2.38;;
30000;SDS011;16845;48.670;9.000;2024-03-25T08:46:40;6.25;;;2.10;;
30000;SDS011;16845;48.670;9.000;2024-03-25T08:49:06;4.07;;;2.10;;
30000;SDS011;16845;48.670;9.000;2024-03-25T08:51:31;3.50;;;2.00;;
30000;SDS011;16845;48.670;9.000;2024-03-25T08:53:57;4.82;;;2.33;;
30000;SDS011;16845;48.670;9.000;2024-03-25T08:56:22;6.95;;;2.30;;
30000;SDS011;16845;48.670;9.000;2024-03-25T08:58:49;3.25;;;2.30;;
30000;SDS011;16845;48.670;9.000;2024-03-25T09:01:15;3.67;;;2.17;;
30000;SDS011;16845;48.670;9.000;2024-03-25T09:03:40;5.07;;;2.30;;
30000;SDS011;16845;48.670;9.000;2024-03-25T09:06:06;5.72;;;2.55;;
30000;SDS011;16845;48.670;9.000;2024-03-25T09:08:31;4.53;;;2.08;;
30000;SDS011;16845;48.670;9.000;2024-03-25T09:10:57;4.25;;;2.35;;
30000;SDS011;16845;48.670;9.000;2024-03-25T09:13:22;4.78;;;2.05;;
30000;SDS011;16845;48.670;9.000;2024-03-25T09:15:49;4.57;;;1.98;;
30000;SDS011;16845;48.670;9.000;2024-03-25T09:18:15;6.50;;;2.10;;
30000;SDS011;16845;48.670;9.000;2024-03-25T09:20:40;4.53;;;1.95;;
30000;SDS011;16845;48.670;9.000;2024-03-25T09:23:06;7.38;;;2.47;;
30000;SDS011;16845;48.670;9.000;2024-03-25T09:25:32;5.85;;;1.95;;
30000;SDS011;16845;48.670;9.000;2024-03-25T09:27:57;4.25;;;2.20;;
30000;SDS011;16845;48.670;9.000;2024-03-25T09:30:23;4.30;;;2.28;;
30000;SDS011;16845;48.670;9.000;2024-03-25T09:32:49;6.03;;;2.28;;
30000;SDS011;16845;48.670;9.000;2024-03-25T09:35:15;5.35;;;2.47;;
30000;SDS011;16845;48.670;9.000;2024-03-25T09:37:41;4.50;;;2.70;;
30000;SDS011;16845;48.670;9.000;2024-03-25T09:40:07;7.97;;;2.60;;
30000;SDS011;16845;48.670;9.000;2024-03-25T09:42:33;8.07;;;2.13;;
30000;SDS011;16845;48.670;9.000;2024-03-25T09:45:01;7.80;;;2.33;;
30000;SDS011;16845;48.670;9.000;2024-03-25T09:47:27;4.60;;;2.67;;
30000;SDS011;16845;48.670;9.000;2024-03-25T09:49:54;4.63;;;1.90;;
30000;SDS011;16845;48.670;9.000;2024-03-25T09:52:20;3.63;;;2.80;;
30000;SDS011;16845;48.670;9.000;2024-03-25T09:54:46;4.55;;;2.05;;
30000;SDS011;16845;48.670;9.000;2024-03-25T09:57:11;6.25;;;1.77;;
30000;SDS011;16845;48.670;9.000;2024-03-25T09:59:38;5.85;;;2.30;;
30000;SDS011;16845;48.670;9.000;2024-03-25T10:02:04;4.90;;;2.50;;
30000;SDS011;16845;48.670;9.000;2024-03-25T10:06:58;4.90;;;2.10;;
30000;SDS011;16845;48.670;9.000;2024-03-25T10:09:24;8.90;;;2.45;;
30000;SDS011;16845;48.670;9.000;2024-03-25T10:11:49;5.18;;;2.15;;
30000;SDS011;16845;48.670;9.000;2024-03-25T10:14:15;7.18;;;2.13;;
30000;SDS011;16845;48.670;9.000;2024-03-25T10:16:41;4.97;;;2.20;;
30000;SDS011;16845;48.670;9.000;2024-03-25T10:19:07;3.70;;;2.20;;
30000;SDS011;16845;48.670;9.000;2024-03-25T10:21:32;4.90;;;2.47;;
30000;SDS011;16845;48.670;9.000;2024-03-25T10:23:59;4.32;;;1.88;;
30000;SDS011;16845;48.670;9.000;2024-03-25T10:26:25;4.55;;;1.90;;
30000;SDS011;16845;48.670;9.000;2024-03-25T10:28:58;3.83;;;1.98;;
30000;SDS011;16845;48.670;9.000;2024-03-25T10:31:25;4.72;;;1.77;;
30000;SDS011;16845;48.670;9.000;2024-03-25T10:33:50;6.63;;;2.55;;
30000;SDS011;16845;48.670;9.000;2024-03-25T10:36:17;5.38;;;2.88;;
30000;SDS011;16845;48.670;9.000;2024-03-25T10:38:43;8.15;;;2.35;;
30000;SDS011;16845;48.670;9.000;2024-03-25T10:41:11;5.57;;;1.95;;
30000;SDS011;16845;48.670;9.000;2024-03-25T10:43:42;5.25;;;2.03;;
30000;SDS011;16845;48.670;9.000;2024-03-25T10:46:10;4.63;;;2.10;;
30000;SDS011;16845;48.670;9.000;2024-03-25T10:48:39;5.85;;;1.63;;
30000;SDS011;16845;48.670;9.000;2024-03-25T10:51:05;3.30;;;2.03;;
30000;SDS011;16845;48.670;9.000;2024-03-25T10:53:32;5.13;;;1.97;;
30000;SDS011;16845;48.670;9.000;2024-03-25T10:56:01;5.45;;;1.98;;
30000;SDS011;16845;48.670;9.000;2024-03-25T10:58:30;6.85;;;2.60;;
30000;SDS011;16845;48.670;9.000;2024-03-25T11:00:58;5.90;;;2.38;;
30000;SDS011;16845;48.670;9.000;2024-03-25T11:03:25;4.85;;;1.70;;
30000;SDS011;16845;48.670;9.000;2024-03-25T11:05:51;4.47;;;2.00;;
30000;SDS011;16845;48.670;9.000;2024-03-25T11:08:17;5.38;;;2.22;;
30000;SDS011;16845;48.670;9.000;2024-03-25T11:10:44;3.08;;;1.80;;
30000;SDS011;16845;48.670;9.000;2024-03-25T11:13:10;4.55;;;2.08;;
30000;SDS011;16845;48.670;9.000;2024-03-25T11:15:39;6.40;;;1.63;;
30000;SDS011;16845;48.670;9.000;2024-03-25T11:18:10;6.13;;;2.10;;
30000;SDS011;16845;48.670;9.000;2024-03-25T11:20:36;4.32;;;1.85;;
30000;SDS011;16845;48.670;9.000;2024-03-25T11:23:07;3.58;;;1.88;;
30000;SDS011;16845;48.670;9.000;2024-03-25T11:25:33;2.88;;;1.65;;
30000;SDS011;16845;48.670;9.000;2024-03-25T11:27:59;2.83;;;1.60;;
30000;SDS011;16845;48.670;9.000;2024-03-25T11:30:26;4.18;;;1.95;;
30000;SDS011;16845;48.670;9.000;2024-03-25T11:32:53;6.15;;;1.98;;
30000;SDS011;16845;48.670;9.000;2024-03-25T11:35:20;4.40;;;1.98;;
30000;SDS011;16845;48.670;9.000;2024-03-25T11:37:46;4.07;;;1.60;;
30000;SDS011;16845;48.670;9.000;2024-03-25T11:40:12;3.90;;;1.80;;
30000;SDS011;16845;48.670;9.000;2024-03-25T11:45:04;4.60;;;2.63;;
30000;SDS011;16845;48.670;9.000;2024-03-25T11:47:31;7.88;;;3.05;;
30000;SDS011;16845;48.670;9.000;2024-03-25T11:49:58;3.92;;;1.92;;
30000;SDS011;16845;48.670;9.000;2024-03-25T11:52:23;5.20;;;1.67;;
30000;SDS011;16845;48.670;9.000;2024-03-25T11:54:55;1.90;;;1.20;;
30000;SDS011;16845;48.670;9.000;2024-03-25T11:57:21;4.72;;;1.70;;
30000;SDS011;16845;48.670;9.000;2024-03-25T11:59:46;2.28;;;1.60;;
30000;SDS011;16845;48.670;9.000;2024-03-25T12:02:12;3.33;;;1.58;;
30000;SDS011;16845;48.670;9.000;2024-03-25T12:04:38;4.60;;;2.83;;
30000;SDS011;16845;48.670;9.000;2024-03-25T12:07:09;4.47;;;1.52;;
30000;SDS011;16845;48.670;9.000;2024-03-25T12:09:36;3.42;;;1.85;;
30000;SDS011;16845;48.670;9.000;2024-03-25T12:12:01;3.47;;;1.50;;
30000;SDS011;16845;48.670;9.000;2024-03-25T12:14:27;3.10;;;1.63;;
30000;SDS011;16845;48.670;9.000;2024-03-25T12:16:53;3.55;;;1.60;;
30000;SDS011;16845;48.670;9.000;2024-03-25T12:19:19;3.85;;;1.42;;
30000;SDS011;16845;48.670;9.000;2024-03-25T12:21:44;3.35;;;1.65;;
30000;SDS011;16845;48.670;9.000;2024-03-25T12:24:12;3.95;;;1.50;;
30000;SDS011;16845;48.670;9.000;2024-03-25T12:29:03;2.78;;;1.30;;
30000;SDS011;16845;48.670;9.000;2024-03-25T12:31:28;4.65;;;1.75;;
30000;SDS011;16845;48.670;9.000;2024-03-25T12:33:54;3.05;;;1.70;;
30000;SDS011;16845;48.670;9.000;2024-03-25T12:36:20;3.65;;;1.48;;
30000;SDS011;16845;48.670;9.000;2024-03-25T12:38:53;4.85;;;1.90;;
30000;SDS011;16845;48.670;9.000;2024-03-25T12:41:21;6.28;;;1.65;;
30000;SDS011;16845;48.670;9.000;2024-03-25T12:43:48;4.25;;;1.80;;
30000;SDS011;16845;48.670;9.000;2024-03-25T12:46:15;3.35;;;2.08;;
30000;SDS011;16845;48.670;9.000;2024-03-25T12:48:40;3.17;;;1.88;;
30000;SDS011;16845;48.670;9.000;2024-03-25T12:51:11;2.17;;;1.45;;
30000;SDS011;16845;48.670;9.000;2024-03-25T12:53:38;2.90;;;1.52;;
30000;SDS011;16845;48.670;9.000;2024-03-25T12:56:03;3.63;;;1.67;;
30000;SDS011;16845;48.670;9.000;2024-03-25T12:58:30;5.20;;;1.55;;
30000;SDS011;16845;48.670;9.000;2024-03-25T13:00:56;2.35;;;1.48;;
30000;SDS011;16845;48.670;9.000;2024-03-25T13:03:23;3.00;;;1.70;;
30000;SDS011;16845;48.670;9.000;2024-03-25T13:05:49;5.68;;;1.50;;
30000;SDS011;16845;48.670;9.000;2024-03-25T13:08:14;2.85;;;1.20;;
30000;SDS011;16845;48.670;9.000;2024-03-25T13:10:40;2.58;;;1.15;;
30000;SDS011;16845;48.670;9.000;2024-03-25T13:13:06;2.42;;;1.38;;
30000;SDS011;16845;48.670;9.000;2024-03-25T13:15:33;2.17;;;1.40;;
30000;SDS011;16845;48.670;9.000;2024-03-25T13:17:58;2.80;;;1.30;;
30000;SDS011;16845;48.670;9.000;2024-03-25T13:20:24;2.85;;;1.25;;
30000;SDS011;16845;48.670;9.000;2024-03-25T13:22:49;4.55;;;1.13;;
30000;SDS011;16845;48.670;9.000;2024-03-25T13:25:19;3.72;;;1.50;;
30000;SDS011;16845;48.670;9.000;2024-03-25T13:27:44;4.55;;;1.60;;
30000;SDS011;16845;48.670;9.000;2024-03-25T13:30:10;1.95;;;1.23;;
30000;SDS011;16845;48.670;9.000;2024-03-25T13:32:37;2.28;;;0.98;;
30000;SDS011;16845;48.670;9.000;2024-03-25T13:35:03;4.40;;;1.30;;
30000;SDS011;16845;48.670;9.000;2024-03-25T13:37:29;5.28;;;1.63;;
30000;SDS011;16845;48.670;9.000;2024-03-25T13:39:54;2.80;;;1.48;;
30000;SDS011;16845;48.670;9.000;2024-03-25T13:42:20;5.15;;;2.25;;
30000;SDS011;16845;48.670;9.000;2024-03-25T13:44:46;2.88;;;1.70;;
30000;SDS011;16845;48.670;9.000;2024-03-25T13:47:11;6.63;;;1.73;;
30000;SDS011;16845;48.670;9.000;2024-03-25T13:49:38;6.18;;;2.60;;
30000;SDS011;16845;48.670;9.000;2024-03-25T13:52:04;4.13;;;2.42;;
30000;SDS011;16845;48.670;9.000;2024-03-25T13:54:30;4.20;;;1.95;;
30000;SDS011;16845;48.670;9.000;2024-03-25T13:56:56;5.57;;;2.80;;
30000;SDS011;16845;48.670;9.000;2024-03-25T13:59:22;6.10;;;2.28;;
30000;SDS011;16845;48.670;9.000;2024-03-25T14:01:47;2.97;;;1.80;;
30000;SDS011;16845;48.670;9.000;2024-03-25T14:04:13;2.53;;;1.45;;
30000;SDS011;16845;48.670;9.000;2024-03-25T14:06:40;6.43;;;2.08;;
30000;SDS011;16845;48.670;9.000;2024-03-25T14:09:05;5.93;;;2.15;;
30000;SDS011;16845;48.670;9.000;2024-03-25T14:11:31;2.35;;;1.77;;
30000;SDS011;16845;48.670;9.000;2024-03-25T14:13:57;2.60;;;1.80;;
30000;SDS011;16845;48.670;9.000;2024-03-25T14:16:22;3.95;;;1.73;;
30000;SDS011;16845;48.670;9.000;2024-03-25T14:18:48;4.03;;;1.70;;
30000;SDS011;16845;48.670;9.000;2024-03-25T14:21:14;7.35;;;2.17;;
30000;SDS011;16845;48.670;9.000;2024-03-25T14:23:41;4.15;;;2.00;;
30000;SDS011;16845;48.670;9.000;2024-03-25T14:26:06;4.72;;;1.83;;
30000;SDS011;16845;48.670;9.000;2024-03-25T14:28:32;6.63;;;2.15;;
30000;SDS011;16845;48.670;9.000;2024-03-25T14:30:57;5.22;;;1.85;;
30000;SDS011;16845;48.670;9.000;2024-03-25T14:33:23;5.38;;;2.80;;
30000;SDS011;16845;48.670;9.000;2024-03-25T14:35:48;8.93;;;2.83;;
30000;SDS011;16845;48.670;9.000;2024-03-25T14:38:14;2.60;;;1.80;;
30000;SDS011;16845;48.670;9.000;2024-03-25T14:40:41;3.38;;;2.00;;
30000;SDS011;16845;48.670;9.000;2024-03-25T14:43:07;5.03;;;2.58;;
30000;SDS011;16845;48.670;9.000;2024-03-25T14:45:32;4.82;;;1.90;;